sensor_id;sensor_type;location;lat;lon;timestamp;pressure;altitude;pressure_sealevel;temperature
20289;BMP180;10303;51.960;8.372;2022-10-16T11:25:33;100520.00;;;23.80
20289;BMP180;10303;51.960;8.372;2022-10-16T11:28:15;100521.00;;;23.60
20289;BMP180;10303;51.960;8.372;2022-10-16T11:30:53;100511.00;;;23.40
20289;BMP180;10303;51.960;8.372;2022-10-16T11:36:11;100533.00;;;23.00
20289;BMP180;10303;51.960;8.372;2022-10-16T11:39:20;100525.00;;;22.70
20289;BMP180;10303;51.960;8.372;2022-10-16T11:45:23;100518.00;;;22.50
20289;BMP180;10303;51.960;8.372;2022-10-16T11:56:26;100522.00;;;23.20
20289;BMP180;10303;51.960;8.372;2022-10-16T11:59:05;100516.00;;;23.40
20289;BMP180;10303;51.960;8.372;2022-10-16T12:01:42;100526.00;;;23.50
20289;BMP180;10303;51.960;8.372;2022-10-16T12:04:34;100525.00;;;23.60
20289;BMP180;10303;51.960;8.372;2022-10-16T12:07:24;100518.00;;;23.50
20289;BMP180;10303;51.960;8.372;2022-10-16T12:09:53;100532.00;;;23.50
20289;BMP180;10303;51.960;8.372;2022-10-16T12:12:47;100541.00;;;23.70
20289;BMP180;10303;51.960;8.372;2022-10-16T12:15:30;100534.00;;;23.90
20289;BMP180;10303;51.960;8.372;2022-10-16T12:17:57;100537.00;;;24.10
20289;BMP180;10303;51.960;8.372;2022-10-16T12:23:04;100547.00;;;24.40
20289;BMP180;10303;51.960;8.372;2022-10-16T12:25:40;100543.00;;;24.60
20289;BMP180;10303;51.960;8.372;2022-10-16T12:28:28;100533.00;;;24.80
20289;BMP180;10303;51.960;8.372;2022-10-16T12:31:05;100536.00;;;24.80
20289;BMP180;10303;51.960;8.372;2022-10-16T12:33:40;100549.00;;;24.80
20289;BMP180;10303;51.960;8.372;2022-10-16T12:36:30;100544.00;;;24.70
20289;BMP180;10303;51.960;8.372;2022-10-16T12:38:57;100544.00;;;24.80
20289;BMP180;10303;51.960;8.372;2022-10-16T12:41:35;100549.00;;;24.70
20289;BMP180;10303;51.960;8.372;2022-10-16T12:44:03;100548.00;;;24.70
20289;BMP180;10303;51.960;8.372;2022-10-16T12:51:42;100566.00;;;24.40
20289;BMP180;10303;51.960;8.372;2022-10-16T12:54:28;100573.00;;;24.30
20289;BMP180;10303;51.960;8.372;2022-10-16T13:06:40;100591.00;;;23.70
20289;BMP180;10303;51.960;8.372;2022-10-16T13:10:01;100581.00;;;23.60
20289;BMP180;10303;51.960;8.372;2022-10-16T13:13:05;100575.00;;;23.60
20289;BMP180;10303;51.960;8.372;2022-10-16T13:15:44;100583.00;;;23.50
20289;BMP180;10303;51.960;8.372;2022-10-16T13:27:35;100580.00;;;23.20
20289;BMP180;10303;51.960;8.372;2022-10-16T13:30:27;100593.00;;;23.20
20289;BMP180;10303;51.960;8.372;2022-10-16T13:33:30;100593.00;;;23.10
20289;BMP180;10303;51.960;8.372;2022-10-16T13:35:58;100600.00;;;23.10
20289;BMP180;10303;51.960;8.372;2022-10-16T13:38:31;100600.00;;;23.10
20289;BMP180;10303;51.960;8.372;2022-10-16T13:41:05;100610.00;;;23.10
20289;BMP180;10303;51.960;8.372;2022-10-16T13:43:35;100607.00;;;23.10
20289;BMP180;10303;51.960;8.372;2022-10-16T13:46:14;100605.00;;;23.00
20289;BMP180;10303;51.960;8.372;2022-10-16T13:48:45;100596.00;;;23.00
20289;BMP180;10303;51.960;8.372;2022-10-16T13:51:23;100601.00;;;23.00
20289;BMP180;10303;51.960;8.372;2022-10-16T13:53:51;100607.00;;;23.00
20289;BMP180;10303;51.960;8.372;2022-10-16T13:56:25;100610.00;;;22.90
20289;BMP180;10303;51.960;8.372;2022-10-16T13:59:41;100607.00;;;22.90
20289;BMP180;10303;51.960;8.372;2022-10-16T14:01:54;100605.00;;;22.90
20289;BMP180;10303;51.960;8.372;2022-10-16T14:04:32;100602.00;;;22.90
20289;BMP180;10303;51.960;8.372;2022-10-16T14:07:00;100604.00;;;23.00
20289;BMP180;10303;51.960;8.372;2022-10-16T14:09:29;100617.00;;;22.90
20289;BMP180;10303;51.960;8.372;2022-10-16T14:12:08;100624.00;;;22.90
20289;BMP180;10303;51.960;8.372;2022-10-16T14:14:49;100624.00;;;22.90
20289;BMP180;10303;51.960;8.372;2022-10-16T14:19:57;100626.00;;;22.80
20289;BMP180;10303;51.960;8.372;2022-10-16T14:22:36;100622.00;;;22.90
20289;BMP180;10303;51.960;8.372;2022-10-16T14:25:23;100631.00;;;22.90
20289;BMP180;10303;51.960;8.372;2022-10-16T14:28:22;100616.00;;;22.80
20289;BMP180;10303;51.960;8.372;2022-10-16T14:30:55;100611.00;;;22.80
20289;BMP180;10303;51.960;8.372;2022-10-16T14:33:40;100617.00;;;22.80
20289;BMP180;10303;51.960;8.372;2022-10-16T14:36:15;100620.00;;;22.80
20289;BMP180;10303;51.960;8.372;2022-10-16T14:41:25;100609.00;;;22.90
20289;BMP180;10303;51.960;8.372;2022-10-16T14:44:00;100617.00;;;22.80
20289;BMP180;10303;51.960;8.372;2022-10-16T14:46:36;100612.00;;;22.80
20289;BMP180;10303;51.960;8.372;2022-10-16T14:49:25;100613.00;;;22.80
20289;BMP180;10303;51.960;8.372;2022-10-16T14:51:51;100621.00;;;22.80
20289;BMP180;10303;51.960;8.372;2022-10-16T14:54:20;100616.00;;;22.80
20289;BMP180;10303;51.960;8.372;2022-10-16T14:59:44;100612.00;;;22.70
20289;BMP180;10303;51.960;8.372;2022-10-16T15:02:25;100624.00;;;22.80
20289;BMP180;10303;51.960;8.372;2022-10-16T15:04:53;100615.00;;;22.90
20289;BMP180;10303;51.960;8.372;2022-10-16T15:07:20;100620.00;;;22.90
20289;BMP180;10303;51.960;8.372;2022-10-16T15:09:47;100614.00;;;22.90
20289;BMP180;10303;51.960;8.372;2022-10-16T15:12:15;100626.00;;;23.00
20289;BMP180;10303;51.960;8.372;2022-10-16T15:14:41;100637.00;;;23.00
20289;BMP180;10303;51.960;8.372;2022-10-16T15:17:10;100638.00;;;23.00
20289;BMP180;10303;51.960;8.372;2022-10-16T15:19:37;100647.00;;;23.00
20289;BMP180;10303;51.960;8.372;2022-10-16T15:22:03;100633.00;;;23.00
20289;BMP180;10303;51.960;8.372;2022-10-16T15:24:29;100629.00;;;23.00
20289;BMP180;10303;51.960;8.372;2022-10-16T15:26:55;100642.00;;;23.00
20289;BMP180;10303;51.960;8.372;2022-10-16T15:29:21;100629.00;;;23.00
20289;BMP180;10303;51.960;8.372;2022-10-16T15:31:47;100638.00;;;23.00
20289;BMP180;10303;51.960;8.372;2022-10-16T15:34:13;100631.00;;;22.90
20289;BMP180;10303;51.960;8.372;2022-10-16T15:36:40;100646.00;;;22.90
20289;BMP180;10303;51.960;8.372;2022-10-16T15:39:16;100649.00;;;22.80
20289;BMP180;10303;51.960;8.372;2022-10-16T15:41:44;100641.00;;;22.80
20289;BMP180;10303;51.960;8.372;2022-10-16T15:44:10;100634.00;;;22.70
20289;BMP180;10303;51.960;8.372;2022-10-16T15:46:37;100629.00;;;22.70
20289;BMP180;10303;51.960;8.372;2022-10-16T15:49:04;100628.00;;;22.60
20289;BMP180;10303;51.960;8.372;2022-10-16T15:51:33;100621.00;;;22.60
20289;BMP180;10303;51.960;8.372;2022-10-16T15:54:04;100628.00;;;22.50
20289;BMP180;10303;51.960;8.372;2022-10-16T15:56:30;100624.00;;;22.40
20289;BMP180;10303;51.960;8.372;2022-10-16T15:59:00;100617.00;;;22.40
20289;BMP180;10303;51.960;8.372;2022-10-16T16:01:31;100643.00;;;22.30
20289;BMP180;10303;51.960;8.372;2022-10-16T16:03:58;100640.00;;;22.30
20289;BMP180;10303;51.960;8.372;2022-10-16T16:06:24;100641.00;;;22.20
20289;BMP180;10303;51.960;8.372;2022-10-16T16:08:58;100657.00;;;22.20
20289;BMP180;10303;51.960;8.372;2022-10-16T16:11:27;100657.00;;;22.10
20289;BMP180;10303;51.960;8.372;2022-10-16T16:13:54;100645.00;;;22.10
20289;BMP180;10303;51.960;8.372;2022-10-16T16:16:23;100660.00;;;22.00
20289;BMP180;10303;51.960;8.372;2022-10-16T16:18:54;100645.00;;;21.90
20289;BMP180;10303;51.960;8.372;2022-10-16T16:21:21;100645.00;;;21.90
20289;BMP180;10303;51.960;8.372;2022-10-16T16:23:48;100656.00;;;21.80
20289;BMP180;10303;51.960;8.372;2022-10-16T16:26:25;100655.00;;;21.70
20289;BMP180;10303;51.960;8.372;2022-10-16T16:28:54;100657.00;;;21.70
20289;BMP180;10303;51.960;8.372;2022-10-16T16:31:25;100663.00;;;21.60
20289;BMP180;10303;51.960;8.372;2022-10-16T16:33:52;100656.00;;;21.60
20289;BMP180;10303;51.960;8.372;2022-10-16T16:36:19;100657.00;;;21.50
20289;BMP180;10303;51.960;8.372;2022-10-16T16:38:46;100652.00;;;21.50
20289;BMP180;10303;51.960;8.372;2022-10-16T16:41:19;100670.00;;;21.40
20289;BMP180;10303;51.960;8.372;2022-10-16T16:43:47;100663.00;;;21.40
20289;BMP180;10303;51.960;8.372;2022-10-16T16:46:14;100651.00;;;21.30
20289;BMP180;10303;51.960;8.372;2022-10-16T16:48:41;100647.00;;;21.30
20289;BMP180;10303;51.960;8.372;2022-10-16T16:51:15;100655.00;;;21.20
20289;BMP180;10303;51.960;8.372;2022-10-16T16:53:43;100657.00;;;21.20
20289;BMP180;10303;51.960;8.372;2022-10-16T16:56:11;100674.00;;;21.10
20289;BMP180;10303;51.960;8.372;2022-10-16T16:58:37;100673.00;;;21.10
20289;BMP180;10303;51.960;8.372;2022-10-16T17:01:04;100658.00;;;21.10
20289;BMP180;10303;51.960;8.372;2022-10-16T17:03:34;100664.00;;;20.90
20289;BMP180;10303;51.960;8.372;2022-10-16T17:06:05;100666.00;;;20.90
20289;BMP180;10303;51.960;8.372;2022-10-16T17:08:34;100680.00;;;20.90
20289;BMP180;10303;51.960;8.372;2022-10-16T17:11:01;100667.00;;;20.80
20289;BMP180;10303;51.960;8.372;2022-10-16T17:13:31;100681.00;;;20.80
20289;BMP180;10303;51.960;8.372;2022-10-16T17:16:05;100690.00;;;20.80
20289;BMP180;10303;51.960;8.372;2022-10-16T17:18:32;100673.00;;;20.80
20289;BMP180;10303;51.960;8.372;2022-10-16T17:21:04;100698.00;;;20.70
20289;BMP180;10303;51.960;8.372;2022-10-16T17:23:32;100700.00;;;20.70
20289;BMP180;10303;51.960;8.372;2022-10-16T17:26:09;100721.00;;;20.60
20289;BMP180;10303;51.960;8.372;2022-10-16T17:28:35;100720.00;;;20.60
20289;BMP180;10303;51.960;8.372;2022-10-16T17:31:23;100713.00;;;20.50
20289;BMP180;10303;51.960;8.372;2022-10-16T17:33:50;100683.00;;;20.50
20289;BMP180;10303;51.960;8.372;2022-10-16T17:36:17;100715.00;;;20.50
20289;BMP180;10303;51.960;8.372;2022-10-16T17:38:44;100705.00;;;20.50
20289;BMP180;10303;51.960;8.372;2022-10-16T17:41:22;100708.00;;;20.40
20289;BMP180;10303;51.960;8.372;2022-10-16T17:43:50;100713.00;;;20.40
20289;BMP180;10303;51.960;8.372;2022-10-16T17:46:20;100711.00;;;20.30
20289;BMP180;10303;51.960;8.372;2022-10-16T17:48:51;100698.00;;;20.30
20289;BMP180;10303;51.960;8.372;2022-10-16T17:51:24;100696.00;;;20.10
20289;BMP180;10303;51.960;8.372;2022-10-16T17:54:00;100688.00;;;20.10
20289;BMP180;10303;51.960;8.372;2022-10-16T17:56:27;100711.00;;;20.00
20289;BMP180;10303;51.960;8.372;2022-10-16T17:58:57;100718.00;;;20.00
20289;BMP180;10303;51.960;8.372;2022-10-16T18:01:32;100726.00;;;19.90
20289;BMP180;10303;51.960;8.372;2022-10-16T18:04:06;100714.00;;;19.90
20289;BMP180;10303;51.960;8.372;2022-10-16T18:06:35;100747.00;;;19.90
20289;BMP180;10303;51.960;8.372;2022-10-16T18:09:04;100749.00;;;19.80
20289;BMP180;10303;51.960;8.372;2022-10-16T18:11:31;100746.00;;;19.80
20289;BMP180;10303;51.960;8.372;2022-10-16T18:13:59;100747.00;;;19.80
20289;BMP180;10303;51.960;8.372;2022-10-16T18:16:28;100748.00;;;19.70
20289;BMP180;10303;51.960;8.372;2022-10-16T18:18:56;100745.00;;;19.70
20289;BMP180;10303;51.960;8.372;2022-10-16T18:21:24;100743.00;;;19.60
20289;BMP180;10303;51.960;8.372;2022-10-16T18:23:56;100748.00;;;19.60
20289;BMP180;10303;51.960;8.372;2022-10-16T18:26:23;100748.00;;;19.60
20289;BMP180;10303;51.960;8.372;2022-10-16T18:28:55;100752.00;;;19.50
20289;BMP180;10303;51.960;8.372;2022-10-16T18:31:22;100748.00;;;19.50
20289;BMP180;10303;51.960;8.372;2022-10-16T18:33:51;100755.00;;;19.50
20289;BMP180;10303;51.960;8.372;2022-10-16T18:36:24;100739.00;;;19.40
20289;BMP180;10303;51.960;8.372;2022-10-16T18:38:51;100756.00;;;19.40
20289;BMP180;10303;51.960;8.372;2022-10-16T18:41:18;100750.00;;;19.40
20289;BMP180;10303;51.960;8.372;2022-10-16T18:43:44;100753.00;;;19.30
20289;BMP180;10303;51.960;8.372;2022-10-16T18:46:15;100748.00;;;19.20
20289;BMP180;10303;51.960;8.372;2022-10-16T18:48:42;100747.00;;;19.20
20289;BMP180;10303;51.960;8.372;2022-10-16T18:51:25;100733.00;;;19.20
20289;BMP180;10303;51.960;8.372;2022-10-16T18:53:55;100742.00;;;19.20
20289;BMP180;10303;51.960;8.372;2022-10-16T18:56:23;100729.00;;;19.20
20289;BMP180;10303;51.960;8.372;2022-10-16T18:58:51;100739.00;;;19.10
20289;BMP180;10303;51.960;8.372;2022-10-16T19:01:26;100720.00;;;19.10
20289;BMP180;10303;51.960;8.372;2022-10-16T19:04:01;100695.00;;;19.10
20289;BMP180;10303;51.960;8.372;2022-10-16T19:06:35;100734.00;;;19.00
20289;BMP180;10303;51.960;8.372;2022-10-16T19:09:02;100730.00;;;19.10
20289;BMP180;10303;51.960;8.372;2022-10-16T19:11:29;100714.00;;;19.10
20289;BMP180;10303;51.960;8.372;2022-10-16T19:13:56;100720.00;;;19.10
20289;BMP180;10303;51.960;8.372;2022-10-16T19:16:30;100728.00;;;19.00
20289;BMP180;10303;51.960;8.372;2022-10-16T19:18:59;100727.00;;;19.00
20289;BMP180;10303;51.960;8.372;2022-10-16T19:21:27;100708.00;;;19.00
20289;BMP180;10303;51.960;8.372;2022-10-16T19:24:00;100714.00;;;19.00
20289;BMP180;10303;51.960;8.372;2022-10-16T19:26:30;100722.00;;;19.00
20289;BMP180;10303;51.960;8.372;2022-10-16T19:28:59;100731.00;;;19.00
20289;BMP180;10303;51.960;8.372;2022-10-16T19:31:28;100706.00;;;19.00
20289;BMP180;10303;51.960;8.372;2022-10-16T19:33:59;100715.00;;;19.00
20289;BMP180;10303;51.960;8.372;2022-10-16T19:36:35;100726.00;;;19.00
20289;BMP180;10303;51.960;8.372;2022-10-16T19:39:12;100719.00;;;18.90
20289;BMP180;10303;51.960;8.372;2022-10-16T19:41:39;100735.00;;;19.00
20289;BMP180;10303;51.960;8.372;2022-10-16T19:44:08;100728.00;;;19.00
20289;BMP180;10303;51.960;8.372;2022-10-16T19:46:36;100732.00;;;19.00
20289;BMP180;10303;51.960;8.372;2022-10-16T19:49:06;100732.00;;;19.00
20289;BMP180;10303;51.960;8.372;2022-10-16T19:51:32;100722.00;;;19.00
20289;BMP180;10303;51.960;8.372;2022-10-16T19:54:06;100729.00;;;19.00
20289;BMP180;10303;51.960;8.372;2022-10-16T19:56:34;100726.00;;;18.90
20289;BMP180;10303;51.960;8.372;2022-10-16T19:59:02;100728.00;;;19.00
20289;BMP180;10303;51.960;8.372;2022-10-16T20:01:30;100724.00;;;19.00
20289;BMP180;10303;51.960;8.372;2022-10-16T20:03:57;100738.00;;;19.00
20289;BMP180;10303;51.960;8.372;2022-10-16T20:06:25;100727.00;;;19.00
20289;BMP180;10303;51.960;8.372;2022-10-16T20:08:53;100752.00;;;19.00
20289;BMP180;10303;51.960;8.372;2022-10-16T20:11:28;100767.00;;;18.90
20289;BMP180;10303;51.960;8.372;2022-10-16T20:13:56;100748.00;;;19.00
20289;BMP180;10303;51.960;8.372;2022-10-16T20:16:22;100755.00;;;19.00
20289;BMP180;10303;51.960;8.372;2022-10-16T20:18:51;100755.00;;;19.00
20289;BMP180;10303;51.960;8.372;2022-10-16T20:21:32;100777.00;;;19.00
20289;BMP180;10303;51.960;8.372;2022-10-16T20:24:01;100791.00;;;19.00
20289;BMP180;10303;51.960;8.372;2022-10-16T20:26:30;100791.00;;;19.00
20289;BMP180;10303;51.960;8.372;2022-10-16T20:28:56;100799.00;;;19.00
20289;BMP180;10303;51.960;8.372;2022-10-16T20:31:26;100809.00;;;19.00
20289;BMP180;10303;51.960;8.372;2022-10-16T20:33:54;100816.00;;;19.00
20289;BMP180;10303;51.960;8.372;2022-10-16T20:36:24;100821.00;;;19.00
20289;BMP180;10303;51.960;8.372;2022-10-16T20:38:51;100820.00;;;19.10
20289;BMP180;10303;51.960;8.372;2022-10-16T20:41:18;100777.00;;;19.10
20289;BMP180;10303;51.960;8.372;2022-10-16T20:43:48;100792.00;;;19.10
20289;BMP180;10303;51.960;8.372;2022-10-16T20:46:18;100784.00;;;19.00
20289;BMP180;10303;51.960;8.372;2022-10-16T20:48:46;100774.00;;;19.00
20289;BMP180;10303;51.960;8.372;2022-10-16T20:51:30;100799.00;;;19.00
20289;BMP180;10303;51.960;8.372;2022-10-16T20:54:00;100803.00;;;19.00
20289;BMP180;10303;51.960;8.372;2022-10-16T20:56:29;100800.00;;;19.00
20289;BMP180;10303;51.960;8.372;2022-10-16T20:58:56;100802.00;;;19.00
20289;BMP180;10303;51.960;8.372;2022-10-16T21:01:25;100814.00;;;18.90
20289;BMP180;10303;51.960;8.372;2022-10-16T21:03:58;100806.00;;;18.90
20289;BMP180;10303;51.960;8.372;2022-10-16T21:06:27;100804.00;;;18.90
20289;BMP180;10303;51.960;8.372;2022-10-16T21:08:53;100790.00;;;18.90
20289;BMP180;10303;51.960;8.372;2022-10-16T21:11:24;100791.00;;;18.90
20289;BMP180;10303;51.960;8.372;2022-10-16T21:13:54;100793.00;;;18.80
20289;BMP180;10303;51.960;8.372;2022-10-16T21:16:21;100795.00;;;18.80
20289;BMP180;10303;51.960;8.372;2022-10-16T21:18:48;100777.00;;;18.80
20289;BMP180;10303;51.960;8.372;2022-10-16T21:23:53;100803.00;;;18.80
20289;BMP180;10303;51.960;8.372;2022-10-16T21:26:21;100806.00;;;18.70
20289;BMP180;10303;51.960;8.372;2022-10-16T21:28:48;100795.00;;;18.70
20289;BMP180;10303;51.960;8.372;2022-10-16T21:31:17;100797.00;;;18.60
20289;BMP180;10303;51.960;8.372;2022-10-16T21:33:45;100789.00;;;18.70
20289;BMP180;10303;51.960;8.372;2022-10-16T21:36:19;100787.00;;;18.70
20289;BMP180;10303;51.960;8.372;2022-10-16T21:38:46;100792.00;;;18.70
20289;BMP180;10303;51.960;8.372;2022-10-16T21:41:21;100776.00;;;18.70
20289;BMP180;10303;51.960;8.372;2022-10-16T21:43:48;100778.00;;;18.70
20289;BMP180;10303;51.960;8.372;2022-10-16T21:46:16;100770.00;;;18.60
20289;BMP180;10303;51.960;8.372;2022-10-16T21:48:42;100786.00;;;18.70
20289;BMP180;10303;51.960;8.372;2022-10-16T21:51:10;100788.00;;;18.70
20289;BMP180;10303;51.960;8.372;2022-10-16T21:53:37;100760.00;;;18.70
20289;BMP180;10303;51.960;8.372;2022-10-16T21:56:10;100781.00;;;18.70
20289;BMP180;10303;51.960;8.372;2022-10-16T21:58:37;100787.00;;;18.70
20289;BMP180;10303;51.960;8.372;2022-10-16T22:01:13;100784.00;;;18.60
20289;BMP180;10303;51.960;8.372;2022-10-16T22:03:39;100763.00;;;18.70
20289;BMP180;10303;51.960;8.372;2022-10-16T22:06:07;100759.00;;;18.70
20289;BMP180;10303;51.960;8.372;2022-10-16T22:08:35;100754.00;;;18.70
20289;BMP180;10303;51.960;8.372;2022-10-16T22:11:08;100749.00;;;18.60
20289;BMP180;10303;51.960;8.372;2022-10-16T22:13:35;100751.00;;;18.60
20289;BMP180;10303;51.960;8.372;2022-10-16T22:16:02;100749.00;;;18.60
20289;BMP180;10303;51.960;8.372;2022-10-16T22:18:30;100760.00;;;18.60
20289;BMP180;10303;51.960;8.372;2022-10-16T22:20:57;100756.00;;;18.60
20289;BMP180;10303;51.960;8.372;2022-10-16T22:23:23;100763.00;;;18.60
20289;BMP180;10303;51.960;8.372;2022-10-16T22:25:49;100754.00;;;18.60
20289;BMP180;10303;51.960;8.372;2022-10-16T22:28:16;100750.00;;;18.60
20289;BMP180;10303;51.960;8.372;2022-10-16T22:30:45;100755.00;;;18.50
20289;BMP180;10303;51.960;8.372;2022-10-16T22:33:11;100754.00;;;18.50
20289;BMP180;10303;51.960;8.372;2022-10-16T22:35:39;100750.00;;;18.50
20289;BMP180;10303;51.960;8.372;2022-10-16T22:38:06;100759.00;;;18.40
20289;BMP180;10303;51.960;8.372;2022-10-16T22:40:37;100746.00;;;18.40
20289;BMP180;10303;51.960;8.372;2022-10-16T22:43:05;100747.00;;;18.40
20289;BMP180;10303;51.960;8.372;2022-10-16T22:45:35;100730.00;;;18.40
20289;BMP180;10303;51.960;8.372;2022-10-16T22:48:02;100747.00;;;18.40
20289;BMP180;10303;51.960;8.372;2022-10-16T22:50:29;100752.00;;;18.30
20289;BMP180;10303;51.960;8.372;2022-10-16T22:52:55;100739.00;;;18.30
20289;BMP180;10303;51.960;8.372;2022-10-16T22:55:21;100742.00;;;18.30
20289;BMP180;10303;51.960;8.372;2022-10-16T22:57:48;100738.00;;;18.30
20289;BMP180;10303;51.960;8.372;2022-10-16T23:00:18;100738.00;;;18.30
20289;BMP180;10303;51.960;8.372;2022-10-16T23:02:44;100745.00;;;18.20
20289;BMP180;10303;51.960;8.372;2022-10-16T23:05:10;100745.00;;;18.20
20289;BMP180;10303;51.960;8.372;2022-10-16T23:07:38;100743.00;;;18.20
20289;BMP180;10303;51.960;8.372;2022-10-16T23:10:07;100733.00;;;18.20
20289;BMP180;10303;51.960;8.372;2022-10-16T23:12:35;100753.00;;;18.10
20289;BMP180;10303;51.960;8.372;2022-10-16T23:15:01;100751.00;;;18.10
20289;BMP180;10303;51.960;8.372;2022-10-16T23:17:30;100753.00;;;18.10
20289;BMP180;10303;51.960;8.372;2022-10-16T23:19:56;100752.00;;;18.10
20289;BMP180;10303;51.960;8.372;2022-10-16T23:22:22;100741.00;;;18.10
20289;BMP180;10303;51.960;8.372;2022-10-16T23:24:48;100739.00;;;18.10
20289;BMP180;10303;51.960;8.372;2022-10-16T23:27:14;100733.00;;;18.00
20289;BMP180;10303;51.960;8.372;2022-10-16T23:29:39;100729.00;;;18.10
20289;BMP180;10303;51.960;8.372;2022-10-16T23:32:05;100731.00;;;18.10
20289;BMP180;10303;51.960;8.372;2022-10-16T23:34:31;100721.00;;;18.00
20289;BMP180;10303;51.960;8.372;2022-10-16T23:36:57;100744.00;;;18.00
20289;BMP180;10303;51.960;8.372;2022-10-16T23:39:24;100735.00;;;18.00
20289;BMP180;10303;51.960;8.372;2022-10-16T23:41:49;100712.00;;;18.00
20289;BMP180;10303;51.960;8.372;2022-10-16T23:44:16;100727.00;;;18.00
20289;BMP180;10303;51.960;8.372;2022-10-16T23:46:41;100735.00;;;18.00
20289;BMP180;10303;51.960;8.372;2022-10-16T23:49:07;100719.00;;;18.00
20289;BMP180;10303;51.960;8.372;2022-10-16T23:51:34;100718.00;;;18.00
20289;BMP180;10303;51.960;8.372;2022-10-16T23:54:00;100724.00;;;17.90
20289;BMP180;10303;51.960;8.372;2022-10-16T23:56:26;100731.00;;;17.90
20289;BMP180;10303;51.960;8.372;2022-10-16T23:58:52;100724.00;;;17.90
